Terminal Aerodrome Forecast
Issued by NWS Sterling, VA

Current Version | Previous Version | Graphics & Text | Print | Product List | Glossary On
Versions: 1 2 3 4 5 6 7 8 9 10 11 12 13 14 15 16
000
FTUS41 KLWX 190527
TAFMRB
TAF
KMRB 190527Z 1906/2006 00000KT P6SM SKC
     FM190800 00000KT 5SM BR SKC
     FM191100 00000KT P6SM SKC
     FM191500 VRB04KT P6SM SCT050=

USA.gov is the U.S. government's official web portal to all federal, state and local government web resources and services.